Charleston, SC (29405)

11:28 AM EDT on September 01, 2014 (GMT -0400)
Park Circle | Change Station
CLOSE
Current Station
Personal Weather Station
Location: North Charleston, SC
Elevation: 20 ft
Nearby Weather Stations

Elev 20 ft 32.89 °N, 79.99 °W | Updated 8 seconds ago

Scattered Clouds
Scattered Clouds
89.9 °F
Feels Like 103 °F
N
1.0
Wind Variable Wind from NNE
Gusts 1.0 mph

Today
High -- | Low -- °F
--% Chance of Precip.
Yesterday
High -- | Low -- °F
Precip. -- in
6:54 AM 7:44 PM
Waxing Crescent, 41% visible
Pressure 30.13 in
Visibility 10.0 miles
Clouds Scattered Clouds 8000 ft
Scattered Clouds 25000 ft
Heat Index 103 °F
Dew Point 77 °F
Humidity 66%
Rainfall 0.00 in
Snow Depth Not available.
UV 6 out of 12
Pollen 8.60 out of 12
Ozone Good
PM2.5 Good
Flu Activity Not available.
METAR KCHS 011456Z 00000KT 10SM SCT080 SCT250 31/23 A3013 RMK AO2 SLP202 60001 T03060228 52003 $

More Conditions Fewer Conditions

Pressure 30.13 in
Visibility 10.0 miles
Clouds Scattered Clouds 8000 ft
Scattered Clouds 25000 ft
Heat Index 103 °F
Dew Point 77 °F
Humidity 66%
Rainfall 0.00 in
Snow Depth Not available.
UV 6 out of 12
Pollen 8.60 out of 12
Ozone Good
PM2.5 Good
Flu Activity Not available.
METAR KCHS 011456Z 00000KT 10SM SCT080 SCT250 31/23 A3013 RMK AO2 SLP202 60001 T03060228 52003 $

More Conditions Fewer Conditions

10-Day Weather Forecast

Almanac

Astronomy

Sep. 01, 2014 Rise Set
Actual Time 6:54 AM EDT 7:44 PM EDT
Civil Twilight 6:29 AM EDT 8:09 PM EDT
Nautical Twilight 5:59 AM EDT 8:39 PM EDT
Astronomical Twilight 5:29 AM EDT 9:09 PM EDT
Moon 1:17 PM EDT No Moon Set
Length of Visible Light 13h 40m
Length of Day
12h 50m
Tomorrow will be 1m 57s shorter.
Waxing Crescent, 41% of the Moon is Illuminated
Today
Waxing Crescent
Sep 2
First Quarter
Sep 8
Full
Sep 15
Last Quarter
Sep 24
New

Today's Extremes

State Highs State Lows

Community

WunderPhotos

Upload Photos

1,749,273 photos uploaded!

Nearby

Air Quality

  Air Quality AQ Index Pollutant
Yesterday Good
PM2.5
Yesterday Good
OZONE
Current Good
PM2.5
Current Good
OZONE
Monday Good
OZONE

Snow Depth

Station Depth Elevation
No new snow has been reported.

Earthquake Activity

City Distance Mag. Time & Date
No recent earthquake activity has been reported nearby.
Minimum magnitude displayed is 2.5.

Coastal Water Temperatures

Place Temperature
No Stations Reporting

Nearby Weather Stations